Time;durP1;ratioP1;P1;durP2;ratioP2;P2;SDS_P1;SDS_P2;PMS_P1;PMS_P2;Temp;Humidity;BMP_temperature;BMP_pressure;BME280_temperature;BME280_humidity;BME280_pressure;Samples;Min_cycle;Max_cycle;Signal;HPM_P1;HPM_P2
2022/05/23 00:00:19;;;;;;;3.90;0.50;;;;;;;12.30;70.21;101092.16;2087508;28;44691;-77
2022/05/23 00:01:23;;;;;;;5.18;0.70;;;;;;;12.32;70.38;101087.63;2087785;28;45846;-78
2022/05/23 00:02:25;;;;;;;4.55;0.70;;;;;;;12.34;70.59;101084.91;2088600;28;45634;-77
2022/05/23 00:03:27;;;;;;;3.08;0.45;;;;;;;12.34;70.59;101084.91;2087109;28;44339;-77
2022/05/23 00:04:29;;;;;;;2.75;0.47;;;;;;;12.30;70.10;101084.13;2087718;28;29169;-77
2022/05/23 00:05:31;;;;;;;8.02;0.73;;;;;;;12.28;70.48;101085.09;2087946;28;43339;-78
2022/05/23 00:06:33;;;;;;;3.83;0.50;;;;;;;12.28;70.72;101083.28;2077981;28;45574;-77
2022/05/23 00:07:39;;;;;;;2.58;0.43;;;;;;;12.27;70.46;101083.31;2078672;28;45627;-78
2022/05/23 00:08:41;;;;;;;3.67;0.60;;;;;;;12.26;70.90;101077.09;2086759;28;45188;-78
2022/05/23 00:09:43;;;;;;;6.22;0.70;;;;;;;12.28;70.85;101082.41;2087561;28;31356;-77
2022/05/23 00:10:44;;;;;;;5.30;0.63;;;;;;;12.25;70.44;101071.75;2087299;28;42308;-77
2022/05/23 00:11:47;;;;;;;5.32;0.60;;;;;;;12.25;70.36;101074.44;2087668;28;45425;-76
2022/05/23 00:12:51;;;;;;;5.72;0.77;;;;;;;12.21;70.81;101074.50;2088316;28;20906;-77
2022/05/23 00:13:52;;;;;;;4.63;0.50;;;;;;;12.18;70.97;101066.53;2087660;28;43783;-75
2022/05/23 00:14:54;;;;;;;6.72;0.88;;;;;;;12.19;71.00;101068.31;2086271;28;49402;-77
2022/05/23 00:15:57;;;;;;;5.90;0.80;;;;;;;12.20;71.01;101070.09;2079607;28;35109;-77
2022/05/23 00:16:59;;;;;;;4.93;0.57;;;;;;;12.18;70.87;101066.53;2079189;28;44096;-77
2022/05/23 00:18:01;;;;;;;5.38;0.50;;;;;;;12.17;71.04;101062.09;2087270;28;44973;-77
2022/05/23 00:19:04;;;;;;;5.82;0.70;;;;;;;12.17;70.93;101069.28;2086703;28;42471;-77
2022/05/23 00:20:11;;;;;;;5.28;0.70;;;;;;;12.17;71.05;101066.59;2087863;28;44003;-77
2022/05/23 00:21:14;;;;;;;2.88;0.50;;;;;;;12.17;71.01;101063.91;2087250;28;43750;-77
2022/05/23 00:22:18;;;;;;;3.55;0.63;;;;;;;12.17;71.15;101058.56;2088096;28;20096;-77
2022/05/23 00:23:22;;;;;;;4.00;0.57;;;;;;;12.17;71.13;101055.88;2086657;28;43997;-77
2022/05/23 00:24:24;;;;;;;5.63;0.75;;;;;;;12.17;71.45;101058.56;2088159;28;20254;-77
2022/05/23 00:25:26;;;;;;;3.05;0.68;;;;;;;12.17;71.66;101046.00;2087611;28;43062;-77
2022/05/23 00:26:28;;;;;;;2.55;0.40;;;;;;;12.17;71.36;101056.75;2087003;28;46280;-77
2022/05/23 00:27:30;;;;;;;4.78;0.60;;;;;;;12.17;71.33;101054.06;2086130;28;45654;-77
2022/05/23 00:28:34;;;;;;;3.55;0.43;;;;;;;12.15;71.41;101047.84;2079865;28;20048;-77
2022/05/23 00:29:37;;;;;;;2.80;0.60;;;;;;;12.18;71.91;101049.56;2087654;28;20044;-77
2022/05/23 00:30:39;;;;;;;5.43;0.88;;;;;;;12.19;71.89;101038.78;2088573;28;20034;-78
2022/05/23 00:35:17;;;;;;;4.65;0.80;;;;;;;12.18;71.24;101041.50;2088587;28;20038;-77
2022/05/23 00:35:54;;;;;;;5.63;0.52;;;;;;;12.18;71.34;101034.31;2087144;28;43474;-77
2022/05/23 00:36:56;;;;;;;2.17;0.40;;;;;;;12.22;71.23;101030.66;2078983;28;45752;-78
2022/05/23 00:37:58;;;;;;;4.90;0.50;;;;;;;12.22;70.81;101029.75;2078600;28;45779;-78
2022/05/23 00:39:01;;;;;;;6.82;0.80;;;;;;;12.20;71.55;101024.44;2087471;28;43787;-78
2022/05/23 00:40:05;;;;;;;4.35;0.63;;;;;;;12.21;71.50;101020.81;2087180;28;40367;-77
2022/05/23 00:44:05;;;;;;;5.93;0.63;;;;;;;12.22;71.82;101022.59;2076407;28;45192;-77
2022/05/23 00:45:09;;;;;;;5.78;0.55;;;;;;;12.22;71.29;101017.22;2083219;28;20022;-77
2022/05/23 00:46:12;;;;;;;5.22;0.40;;;;;;;12.22;71.57;101017.22;2087517;28;20229;-77
2022/05/23 00:47:39;;;;;;;2.85;0.60;;;;;;;12.23;71.42;101015.41;2113210;22;46020;-63
2022/05/23 00:48:42;;;;;;;3.53;0.60;;;;;;;12.22;70.92;101010.97;2088778;28;20096;-64
2022/05/23 00:49:46;;;;;;;5.72;0.70;;;;;;;12.22;71.27;101014.53;2087908;28;33040;-64
2022/05/23 00:51:07;;;;;;;4.13;0.77;;;;;;;12.19;71.17;101009.25;2088257;28;20857;-64
2022/05/23 00:52:15;;;;;;;4.43;0.75;;;;;;;12.20;71.74;101002.06;2087053;28;45639;-64
2022/05/23 00:53:44;;;;;;;3.83;0.70;;;;;;;12.18;71.62;100996.75;2070792;28;38311;-64
2022/05/23 00:54:49;;;;;;;4.13;0.80;;;;;;;12.16;71.08;100997.72;2071868;28;20075;-64
2022/05/23 00:55:51;;;;;;;4.53;0.70;;;;;;;12.15;71.47;101004.91;2078859;28;46058;-64
2022/05/23 00:56:54;;;;;;;3.88;0.50;;;;;;;12.15;71.04;101001.31;2087289;28;20949;-64
2022/05/23 00:58:08;;;;;;;2.22;0.50;;;;;;;12.14;71.26;101000.44;2071283;28;20057;-64
2022/05/23 00:59:15;;;;;;;4.85;0.75;;;;;;;12.13;71.50;100998.69;2073386;28;44855;-65
2022/05/23 01:00:17;;;;;;;4.30;0.57;;;;;;;12.13;71.64;100990.66;2070121;28;47906;-64
2022/05/23 01:01:27;;;;;;;5.15;0.50;;;;;;;12.14;71.88;100996.91;2063307;28;20149;-65
2022/05/23 01:02:30;;;;;;;3.92;0.80;;;;;;;12.13;71.89;101001.38;2071806;28;20954;-65
2022/05/23 01:03:33;;;;;;;5.38;0.50;;;;;;;12.13;71.72;100996.03;2073834;28;20132;-64
2022/05/23 01:04:35;;;;;;;5.35;0.68;;;;;;;12.12;71.36;100994.25;2079568;28;20077;-64
2022/05/23 01:05:40;;;;;;;3.58;0.50;;;;;;;12.12;71.65;100990.69;2087569;28;32076;-65
2022/05/23 01:06:42;;;;;;;4.53;0.65;;;;;;;12.10;71.96;100980.00;2071164;28;20046;-65
2022/05/23 01:07:43;;;;;;;3.10;0.50;;;;;;;12.12;71.49;100975.47;2063098;28;33571;-65
2022/05/23 01:08:47;;;;;;;4.93;0.70;;;;;;;12.12;72.04;100972.78;2070349;28;36191;-65
2022/05/23 01:09:50;;;;;;;3.17;0.43;;;;;;;12.10;71.67;100969.25;2078294;28;46096;-64
2022/05/23 01:10:52;;;;;;;3.72;0.75;;;;;;;12.09;71.69;100964.81;2071692;28;20155;-64
2022/05/23 01:11:58;;;;;;;5.63;0.70;;;;;;;12.09;71.88;100961.25;2070068;28;44380;-64
2022/05/23 01:13:00;;;;;;;2.65;0.50;;;;;;;12.09;71.56;100967.50;2063118;28;31847;-64
2022/05/23 01:14:05;;;;;;;5.22;0.63;;;;;;;12.07;72.03;100958.59;2063508;28;20031;-65
2022/05/23 01:15:22;;;;;;;5.25;0.88;;;;;;;12.06;72.17;100956.88;2079651;28;21369;-64
2022/05/23 01:16:26;;;;;;;3.28;0.52;;;;;;;12.06;72.06;100962.22;2087653;28;39317;-64
2022/05/23 01:17:32;;;;;;;4.65;0.63;;;;;;;12.03;72.28;100959.63;2079126;28;20038;-64
2022/05/23 01:18:42;;;;;;;5.13;0.50;;;;;;;12.01;72.38;100958.78;2075142;28;20088;-64
2022/05/23 01:19:44;;;;;;;3.22;0.70;;;;;;;12.00;72.36;100957.03;2070710;28;20160;-65
2022/05/23 01:20:56;;;;;;;4.43;0.60;;;;;;;11.97;72.36;100951.72;2069731;28;46293;-64
2022/05/23 01:22:08;;;;;;;9.25;0.80;;;;;;;11.95;72.51;100950.91;2071257;28;44847;-65
2022/05/23 01:23:58;;;;;;;3.08;0.82;;;;;;;11.92;72.61;100953.69;2074403;28;20842;-65
2022/05/23 01:25:17;;;;;;;4.50;0.80;;;;;;;11.89;72.63;100948.38;2086559;28;20071;-64
2022/05/23 01:26:20;;;;;;;6.07;0.98;;;;;;;11.87;72.71;100958.28;2070562;28;20084;-65
2022/05/23 01:27:29;;;;;;;3.58;0.55;;;;;;;11.85;73.03;100951.13;2065612;28;20133;-65
2022/05/23 01:28:38;;;;;;;4.35;0.90;;;;;;;11.83;73.03;100952.97;2063229;28;20061;-65
2022/05/23 01:29:45;;;;;;;3.22;0.60;;;;;;;11.80;72.93;100945.00;2071999;28;20926;-65
2022/05/23 01:30:48;;;;;;;3.83;0.70;;;;;;;11.77;73.47;100939.75;2071692;28;20046;-65
2022/05/23 01:31:59;;;;;;;3.58;0.73;;;;;;;11.81;73.51;100941.41;2063968;28;20043;-65
2022/05/23 01:33:10;;;;;;;8.10;0.93;;;;;;;11.77;73.23;100952.25;2066267;28;20035;-63
2022/05/23 01:34:12;;;;;;;4.35;0.55;;;;;;;11.72;73.58;100944.38;2081888;28;20053;-63
2022/05/23 01:35:23;;;;;;;4.82;0.80;;;;;;;11.72;73.61;100946.16;2079332;28;20085;-63
2022/05/23 01:36:25;;;;;;;3.42;0.70;;;;;;;11.72;73.59;100947.03;2070704;28;20046;-63
2022/05/23 01:37:27;;;;;;;5.80;0.70;;;;;;;11.67;73.45;100943.59;2070627;28;27907;-63
2022/05/23 01:38:43;;;;;;;3.45;0.90;;;;;;;11.63;74.43;100948.16;2078812;28;20053;-63
2022/05/23 01:39:50;;;;;;;4.25;0.80;;;;;;;11.60;74.27;100933.97;2071336;28;20047;-63
2022/05/23 01:41:06;;;;;;;1.90;0.55;;;;;;;11.60;74.49;100939.34;2080970;28;20097;-63
2022/05/23 01:42:09;;;;;;;5.38;1.00;;;;;;;11.58;74.42;100928.66;2078715;28;20152;-63
2022/05/23 01:43:13;;;;;;;5.38;0.82;;;;;;;11.54;74.37;100932.34;2079506;28;20182;-63
2022/05/23 01:44:15;;;;;;;3.22;0.63;;;;;;;11.54;74.62;100929.66;2078238;28;20038;-63
2022/05/23 01:45:33;;;;;;;3.35;0.82;;;;;;;11.53;74.71;100927.00;2071868;28;20069;-63
2022/05/23 01:46:49;;;;;;;3.63;0.70;;;;;;;11.51;75.13;100928.88;2081212;28;20049;-64
2022/05/23 01:47:58;;;;;;;5.35;0.90;;;;;;;11.48;75.00;100921.75;2086981;28;20140;-64
2022/05/23 01:48:59;;;;;;;4.70;1.10;;;;;;;11.48;75.27;100920.88;2077819;28;31611;-64
2022/05/23 01:50:01;;;;;;;3.45;0.85;;;;;;;11.46;75.31;100919.13;2062884;28;20046;-63
2022/05/23 01:51:16;;;;;;;5.60;1.15;;;;;;;11.45;75.60;100919.19;2072155;28;20047;-63
2022/05/23 01:52:18;;;;;;;3.60;0.93;;;;;;;11.43;75.34;100916.53;2070937;28;20103;-64
2022/05/23 01:53:20;;;;;;;6.38;0.95;;;;;;;11.42;75.73;100914.78;2070527;28;20035;-63
2022/05/23 01:54:36;;;;;;;4.75;1.13;;;;;;;11.43;75.48;100905.81;2072639;28;20062;-63
2022/05/23 01:55:38;;;;;;;5.65;1.23;;;;;;;11.40;75.69;100910.38;2071243;28;20889;-63
2022/05/23 01:56:46;;;;;;;5.68;0.80;;;;;;;11.39;75.43;100906.78;2072045;28;20042;-63
2022/05/23 01:57:54;;;;;;;4.93;1.00;;;;;;;11.40;75.51;100902.34;2071629;28;20955;-64
2022/05/23 02:01:41;;;;;;;3.92;0.85;;;;;;;11.34;76.02;100905.16;2073326;28;20127;-63
2022/05/23 02:02:47;;;;;;;4.60;1.02;;;;;;;11.33;76.20;100900.75;2071056;28;20812;-64
2022/05/23 02:03:53;;;;;;;5.65;1.05;;;;;;;11.33;76.24;100900.75;2071443;28;21062;-64
2022/05/23 02:04:56;;;;;;;5.07;1.08;;;;;;;11.33;76.01;100900.75;2079937;28;20054;-64
2022/05/23 02:05:58;;;;;;;4.65;0.75;;;;;;;11.28;76.05;100896.38;2070875;28;20050;-63
2022/05/23 02:07:00;;;;;;;6.00;0.90;;;;;;;11.32;76.61;100898.97;2071213;28;20050;-63
2022/05/23 02:08:07;;;;;;;7.18;1.13;;;;;;;11.30;76.30;100893.66;2079087;28;20120;-63
2022/05/23 02:09:09;;;;;;;6.82;1.00;;;;;;;11.30;76.95;100896.31;2070455;28;20108;-64
2022/05/23 02:10:21;;;;;;;5.20;1.08;;;;;;;11.28;76.58;100890.13;2080690;28;20042;-63
2022/05/23 02:11:22;;;;;;;4.15;0.90;;;;;;;11.28;76.24;100893.69;2086941;28;20046;-64
2022/05/23 02:12:24;;;;;;;4.05;0.98;;;;;;;11.27;77.23;100885.72;2070796;28;20793;-63
2022/05/23 02:13:32;;;;;;;7.85;1.02;;;;;;;11.23;76.68;100892.06;2078841;28;20043;-63
2022/05/23 02:14:36;;;;;;;3.80;0.93;;;;;;;11.25;77.02;100885.75;2070750;28;20038;-64
2022/05/23 02:15:42;;;;;;;4.97;1.08;;;;;;;11.23;76.99;100884.91;2071391;28;20212;-63
2022/05/23 02:17:03;;;;;;;5.25;1.02;;;;;;;11.23;76.91;100890.28;2079507;28;20903;-63
2022/05/23 02:18:05;;;;;;;3.67;0.90;;;;;;;11.22;76.82;100893.00;2061889;28;41472;-63
2022/05/23 02:19:07;;;;;;;3.75;1.00;;;;;;;11.20;77.06;100885.00;2055305;28;20039;-62
2022/05/23 02:20:11;;;;;;;7.15;1.23;;;;;;;11.19;76.99;100890.38;2062319;28;20039;-63
2022/05/23 02:21:16;;;;;;;3.08;1.30;;;;;;;11.17;77.44;100889.53;2063001;28;20101;-63
2022/05/23 02:22:17;;;;;;;3.45;0.80;;;;;;;11.17;77.54;100886.88;2062278;28;23066;-63
2022/05/23 02:23:23;;;;;;;3.80;0.93;;;;;;;11.16;78.06;100886.00;2063262;28;20061;-64
2022/05/23 02:24:24;;;;;;;3.60;1.00;;;;;;;11.16;78.08;100882.41;2062146;28;20237;-63
2022/05/23 02:25:27;;;;;;;3.38;1.08;;;;;;;11.14;77.88;100873.53;2063002;28;20099;-63
2022/05/23 02:26:31;;;;;;;7.40;1.20;;;;;;;11.16;77.65;100879.72;2070513;28;20050;-63
2022/05/23 02:27:47;;;;;;;5.47;1.10;;;;;;;11.17;78.31;100874.34;2064844;28;20090;-63
2022/05/23 02:28:49;;;;;;;5.43;1.17;;;;;;;11.17;78.30;100877.00;2070818;28;20157;-63
2022/05/23 02:30:02;;;;;;;3.72;0.95;;;;;;;11.18;77.97;100872.53;2070099;28;20071;-63
2022/05/23 02:31:04;;;;;;;6.68;1.10;;;;;;;11.16;78.22;100867.25;2062889;28;20319;-63
2022/05/23 02:32:25;;;;;;;2.88;1.02;;;;;;;11.15;77.82;100867.28;2072877;28;21008;-63
2022/05/23 02:33:29;;;;;;;2.80;0.90;;;;;;;11.13;78.29;100863.75;2070637;28;20041;-63
2022/05/23 02:34:51;;;;;;;4.57;1.25;;;;;;;11.12;77.67;100864.66;2073983;28;20046;-64
2022/05/23 02:35:55;;;;;;;6.35;1.45;;;;;;;11.11;77.94;100854.84;2071680;28;21041;-63
2022/05/23 02:36:56;;;;;;;3.78;0.80;;;;;;;11.08;77.69;100854.03;2062276;28;20105;-64
2022/05/23 02:38:12;;;;;;;3.92;1.00;;;;;;;11.13;77.80;100861.94;2064255;28;20047;-63
2022/05/23 02:39:14;;;;;;;4.82;1.10;;;;;;;11.13;77.58;100853.03;2062178;28;20214;-63
2022/05/23 02:40:21;;;;;;;5.95;1.20;;;;;;;11.14;77.39;100861.00;2063027;28;20039;-63
2022/05/23 02:41:24;;;;;;;5.82;0.98;;;;;;;11.15;77.30;100859.22;2070952;28;20184;-63
2022/05/23 02:42:25;;;;;;;4.20;0.90;;;;;;;11.12;77.08;100853.94;2070419;28;20148;-64
2022/05/23 02:43:27;;;;;;;4.30;1.20;;;;;;;11.14;77.39;100854.78;2070719;28;20100;-63
2022/05/23 02:44:29;;;;;;;3.35;0.95;;;;;;;11.13;77.49;100850.38;2069343;28;20081;-63
2022/05/23 02:45:33;;;;;;;3.47;1.02;;;;;;;11.12;77.64;100845.91;2070993;28;20046;-64
2022/05/23 02:46:35;;;;;;;6.03;1.20;;;;;;;11.08;77.49;100843.31;2070610;28;20098;-64
2022/05/23 02:47:43;;;;;;;6.22;1.17;;;;;;;11.07;77.59;100846.91;2070365;28;20050;-64
2022/05/23 02:48:46;;;;;;;2.78;0.82;;;;;;;11.05;77.49;100838.03;2070485;28;20957;-63
2022/05/23 02:49:47;;;;;;;3.38;0.82;;;;;;;11.07;78.32;100841.56;2078457;28;20828;-64
2022/05/23 02:51:09;;;;;;;7.20;1.33;;;;;;;11.04;77.89;100835.41;2072466;28;20041;-63
2022/05/23 02:52:15;;;;;;;4.15;0.90;;;;;;;11.01;77.87;100835.47;2078804;28;20115;-64
2022/05/23 02:53:37;;;;;;;3.45;1.02;;;;;;;11.02;78.06;100831.88;2073593;28;20046;-63
2022/05/23 02:54:41;;;;;;;5.00;1.20;;;;;;;10.97;78.16;100832.00;2071275;28;20038;-63
2022/05/23 02:55:44;;;;;;;2.95;1.10;;;;;;;10.96;78.06;100832.91;2070336;28;20054;-64
2022/05/23 02:56:47;;;;;;;3.13;1.13;;;;;;;10.93;77.85;100827.66;2070824;28;20181;-63
2022/05/23 02:57:52;;;;;;;5.65;1.27;;;;;;;10.95;78.18;100836.53;2080875;28;20038;-64
2022/05/23 02:58:58;;;;;;;4.85;1.23;;;;;;;10.95;78.24;100833.84;2088214;28;20042;-63
2022/05/23 03:00:00;;;;;;;5.32;1.48;;;;;;;10.94;77.96;100826.72;2087437;28;20034;-63
2022/05/23 03:01:03;;;;;;;3.92;1.15;;;;;;;10.95;78.15;100825.81;2079893;28;20049;-63
2022/05/23 03:03:29;;;;;;;;;;;;;;;10.98;78.13;100830.19;2088745;28;20918;-63
2022/05/23 03:04:34;;;;;;;5.90;1.10;;;;;;;10.95;78.31;100825.81;2080003;28;19925;-63
2022/05/23 03:05:43;;;;;;;5.03;0.98;;;;;;;10.93;77.61;100827.66;2079889;28;43455;-63
2022/05/23 03:06:45;;;;;;;3.20;1.00;;;;;;;10.94;77.99;100833.88;2088426;28;20988;-64
2022/05/23 03:07:46;;;;;;;4.05;1.10;;;;;;;10.92;77.62;100828.56;2087763;28;30902;-64
2022/05/23 03:08:48;;;;;;;3.20;1.20;;;;;;;10.94;78.20;100839.25;2072306;28;20121;-63
2022/05/23 03:09:50;;;;;;;3.72;1.00;;;;;;;10.93;78.17;100832.09;2079453;28;20046;-63
2022/05/23 03:10:56;;;;;;;5.28;1.02;;;;;;;10.95;78.27;100833.84;2079834;28;44831;-64
2022/05/23 03:12:01;;;;;;;4.40;1.20;;;;;;;10.94;78.30;100833.88;2072332;28;20218;-63
2022/05/23 03:13:04;;;;;;;5.18;1.20;;;;;;;10.94;78.34;100834.75;2072456;28;20934;-64
2022/05/23 03:14:06;;;;;;;3.83;1.20;;;;;;;10.96;78.56;100834.72;2071261;28;44720;-63
2022/05/23 03:15:10;;;;;;;4.75;1.33;;;;;;;10.94;78.30;100832.06;2071733;28;20096;-63
2022/05/23 03:16:13;;;;;;;4.63;1.55;;;;;;;10.96;78.20;100827.56;2072325;28;20046;-63
2022/05/23 03:17:17;;;;;;;4.25;1.25;;;;;;;10.97;78.22;100828.44;2072642;28;20154;-64
2022/05/23 03:18:25;;;;;;;3.58;1.08;;;;;;;10.96;78.17;100827.56;2071640;28;20443;-63
2022/05/23 03:19:38;;;;;;;4.50;0.93;;;;;;;10.98;77.90;100820.38;2082109;28;21069;-63
2022/05/23 03:20:41;;;;;;;3.63;1.00;;;;;;;11.02;77.73;100818.50;2088101;28;20156;-64
2022/05/23 03:27:13;;;;;;;4.43;1.23;;;;;;;11.08;77.42;100803.09;2066504;28;20042;-63
2022/05/23 03:28:20;;;;;;;3.00;1.05;;;;;;;11.10;77.50;100804.88;2072436;28;20058;-63
2022/05/23 03:29:22;;;;;;;4.07;1.10;;;;;;;11.12;77.96;100801.22;2072713;28;20919;-64
2022/05/23 03:30:24;;;;;;;3.97;1.15;;;;;;;11.12;77.31;100800.34;2071539;28;20105;-63
2022/05/23 03:31:28;;;;;;;4.60;1.08;;;;;;;11.14;77.13;100799.38;2072150;28;20042;-63
2022/05/23 03:32:31;;;;;;;3.55;1.20;;;;;;;11.16;77.23;100799.34;2079350;28;20058;-64
2022/05/23 03:33:36;;;;;;;6.57;1.50;;;;;;;11.17;77.11;100803.78;2071590;28;20990;-63
2022/05/23 03:34:38;;;;;;;2.97;1.15;;;;;;;11.18;76.67;100806.44;2071595;28;20170;-64
2022/05/23 03:35:46;;;;;;;3.63;1.17;;;;;;;11.19;76.62;100801.94;2071977;28;20911;-64
2022/05/23 03:36:48;;;;;;;5.88;1.58;;;;;;;11.22;76.63;100791.16;2074040;28;20141;-63
2022/05/23 03:37:52;;;;;;;2.40;1.00;;;;;;;11.23;76.52;100799.16;2072386;28;20045;-64
2022/05/23 03:38:54;;;;;;;4.57;1.40;;;;;;;11.26;76.26;100798.16;2071518;28;20042;-64
2022/05/23 03:39:55;;;;;;;4.00;1.20;;;;;;;11.28;76.24;100801.69;2063184;28;30916;-64
2022/05/23 03:41:05;;;;;;;5.07;1.40;;;;;;;11.30;76.23;100807.88;2063747;28;20043;-63
2022/05/23 03:42:06;;;;;;;4.78;1.15;;;;;;;11.32;76.20;100802.47;2071948;28;44774;-64
2022/05/23 03:43:11;;;;;;;3.80;1.20;;;;;;;11.33;76.04;100802.44;2072772;28;20034;-64
2022/05/23 03:44:15;;;;;;;5.07;1.40;;;;;;;11.35;75.72;100805.94;2071811;28;20106;-64
2022/05/23 03:45:17;;;;;;;2.85;1.10;;;;;;;11.37;75.72;100796.06;2071579;28;21032;-64
2022/05/23 03:46:21;;;;;;;3.78;1.20;;;;;;;11.37;75.98;100801.41;2071872;28;20958;-63
2022/05/23 03:47:23;;;;;;;4.88;1.35;;;;;;;11.39;75.78;100799.56;2079716;28;20045;-64
2022/05/23 03:48:25;;;;;;;4.18;1.45;;;;;;;11.42;75.57;100788.75;2089090;28;20045;-65
2022/05/23 03:49:27;;;;;;;3.00;1.02;;;;;;;11.44;75.50;100789.59;2079518;28;20167;-63
2022/05/23 03:50:31;;;;;;;4.00;1.35;;;;;;;11.47;75.42;100794.00;2072057;28;20088;-63
2022/05/23 03:51:34;;;;;;;4.15;1.30;;;;;;;11.49;75.13;100794.84;2080371;28;21327;-63
2022/05/23 03:52:36;;;;;;;3.72;0.80;;;;;;;11.52;74.87;100788.50;2087476;28;29181;-65
2022/05/23 03:53:37;;;;;;;2.40;0.93;;;;;;;11.57;74.61;100790.13;2079678;28;20144;-65
2022/05/23 03:54:42;;;;;;;5.82;1.13;;;;;;;11.68;74.24;100788.91;2071651;28;20043;-65
2022/05/23 03:55:44;;;;;;;5.18;1.15;;;;;;;11.77;74.10;100784.19;2079450;28;20132;-65
2022/05/23 03:56:51;;;;;;;7.05;1.40;;;;;;;11.92;73.31;100781.97;2072185;28;20088;-65
2022/05/23 03:57:53;;;;;;;3.22;1.00;;;;;;;12.13;72.97;100785.78;2079324;28;20045;-65
2022/05/23 03:58:55;;;;;;;2.28;1.20;;;;;;;12.31;71.64;100776.25;2071359;28;20046;-65
2022/05/23 04:00:06;;;;;;;3.42;1.00;;;;;;;12.55;70.80;100780.81;2072788;28;20054;-62
2022/05/23 04:01:21;;;;;;;4.28;1.17;;;;;;;12.79;69.97;100771.03;2079755;28;20046;-65
2022/05/23 04:02:35;;;;;;;3.40;1.10;;;;;;;12.72;69.68;100780.25;2075653;28;20077;-65
2022/05/23 04:03:37;;;;;;;3.75;1.30;;;;;;;12.59;69.58;100769.03;2071750;28;20042;-63
2022/05/23 04:04:39;;;;;;;3.35;1.15;;;;;;;12.77;69.61;100772.00;2071616;28;21331;-65
2022/05/23 04:06:05;;;;;;;6.45;1.33;;;;;;;12.69;69.46;100761.53;2082751;28;20049;-65
2022/05/23 04:07:11;;;;;;;3.72;1.17;;;;;;;12.66;69.51;100764.31;2081193;28;20081;-65
2022/05/23 04:08:35;;;;;;;2.40;0.93;;;;;;;12.56;70.39;100763.78;2073396;28;20112;-63
2022/05/23 04:09:40;;;;;;;3.88;1.40;;;;;;;12.55;69.94;100763.81;2071316;28;20161;-63
2022/05/23 04:10:41;;;;;;;3.75;1.35;;;;;;;12.49;70.52;100754.19;2071183;28;20043;-63
2022/05/23 04:11:47;;;;;;;7.85;1.52;;;;;;;12.45;70.88;100757.88;2071962;28;20927;-64
2022/05/23 04:12:51;;;;;;;3.45;1.23;;;;;;;12.42;70.28;100760.69;2071905;28;20995;-63
2022/05/23 04:13:55;;;;;;;3.78;1.23;;;;;;;12.39;70.64;100755.41;2069103;28;20145;-63
2022/05/23 04:14:57;;;;;;;3.22;1.45;;;;;;;12.32;70.97;100751.16;2062773;28;20043;-63
2022/05/23 04:16:03;;;;;;;3.75;1.63;;;;;;;12.29;71.28;100743.22;2064510;28;20070;-63
2022/05/23 04:17:08;;;;;;;3.55;1.15;;;;;;;12.27;71.29;100740.56;2071273;28;20042;-63
2022/05/23 04:18:14;;;;;;;5.68;1.20;;;;;;;12.27;71.43;100745.94;2064336;28;20053;-63
2022/05/23 04:19:16;;;;;;;4.25;1.33;;;;;;;12.25;70.92;100745.13;2071239;28;21088;-63
2022/05/23 04:20:37;;;;;;;4.15;1.50;;;;;;;12.19;71.97;100743.50;2071261;28;20047;-63
2022/05/23 04:21:45;;;;;;;5.18;1.50;;;;;;;12.22;71.37;100745.22;2071506;28;20038;-64
2022/05/23 04:22:54;;;;;;;2.33;1.40;;;;;;;12.21;71.85;100743.47;2064165;28;20043;-63
2022/05/23 04:23:59;;;;;;;3.10;1.25;;;;;;;12.22;71.62;100738.06;2063902;28;20039;-64
2022/05/23 04:25:01;;;;;;;4.43;1.42;;;;;;;12.25;71.63;100736.19;2062784;28;20942;-63
2022/05/23 04:26:11;;;;;;;5.22;1.45;;;;;;;12.27;71.53;100734.34;2063556;28;20125;-64
2022/05/23 04:27:13;;;;;;;2.35;1.50;;;;;;;12.29;71.43;100732.47;2071699;28;44764;-63
2022/05/23 04:28:18;;;;;;;5.22;1.77;;;;;;;12.31;71.17;100736.88;2071312;28;20068;-63
2022/05/23 04:29:22;;;;;;;3.58;1.42;;;;;;;12.33;71.67;100732.31;2070792;28;20050;-64
2022/05/23 04:30:23;;;;;;;4.38;1.73;;;;;;;12.32;71.40;100732.38;2062981;28;44382;-64
2022/05/23 04:31:25;;;;;;;3.03;1.42;;;;;;;12.36;71.04;100736.69;2062568;28;26596;-64
2022/05/23 04:35:44;;;;;;;6.32;1.38;;;;;;;12.44;70.91;100726.59;2066621;28;20042;-63
2022/05/23 04:36:48;;;;;;;4.32;1.23;;;;;;;12.47;70.76;100722.91;2063084;28;20947;-63
2022/05/23 04:37:56;;;;;;;3.88;1.50;;;;;;;12.49;70.69;100723.72;2066243;28;20102;-63
2022/05/23 04:39:05;;;;;;;4.43;1.33;;;;;;;12.53;70.25;100715.53;2070873;28;20101;-63
2022/05/23 04:40:10;;;;;;;4.93;1.60;;;;;;;12.57;70.57;100710.94;2071975;28;20046;-63
2022/05/23 04:41:12;;;;;;;3.03;1.33;;;;;;;12.60;70.57;100702.78;2071267;28;20947;-64
2022/05/23 04:42:35;;;;;;;4.95;1.42;;;;;;;12.63;70.22;100712.53;2065756;28;21057;-63
2022/05/23 04:43:38;;;;;;;5.55;1.52;;;;;;;12.65;70.06;100710.66;2070546;28;20154;-64
2022/05/23 04:44:40;;;;;;;2.53;1.30;;;;;;;12.67;69.84;100706.09;2079085;28;20053;-64
2022/05/23 04:45:44;;;;;;;3.25;1.70;;;;;;;12.69;69.96;100709.63;2071033;28;20948;-63
2022/05/23 04:49:53;;;;;;;4.13;1.70;;;;;;;12.71;70.69;100697.03;2066236;28;20139;-64
2022/05/23 04:51:14;;;;;;;4.07;1.50;;;;;;;12.70;70.61;100697.94;2057763;28;20075;-63
2022/05/23 04:52:22;;;;;;;5.20;1.48;;;;;;;12.79;69.87;100695.81;2067185;28;20045;-63
2022/05/23 04:53:24;;;;;;;7.45;1.77;;;;;;;12.75;70.19;100694.16;2071339;28;20034;-63
2022/05/23 04:54:36;;;;;;;4.80;1.67;;;;;;;12.78;69.84;100696.75;2064217;28;20063;-64
2022/05/23 04:55:41;;;;;;;4.13;1.48;;;;;;;12.81;70.20;100693.06;2055568;28;20027;-63
2022/05/23 04:56:43;;;;;;;5.15;1.45;;;;;;;12.86;69.95;100696.44;2064097;28;20047;-63
2022/05/23 04:57:52;;;;;;;3.67;1.60;;;;;;;12.90;69.72;100695.44;2079521;28;20046;-63
2022/05/23 04:58:55;;;;;;;5.95;1.80;;;;;;;12.97;70.00;100683.53;2079197;28;20042;-63
2022/05/23 04:59:56;;;;;;;3.60;1.67;;;;;;;13.03;69.51;100692.25;2070602;28;20094;-64
2022/05/23 05:01:03;;;;;;;4.55;1.60;;;;;;;13.08;69.14;100685.81;2063803;28;20058;-64
2022/05/23 05:02:06;;;;;;;6.60;1.88;;;;;;;13.08;69.40;100684.91;2070542;28;20173;-64
2022/05/23 05:03:08;;;;;;;4.75;1.35;;;;;;;13.19;69.09;100685.41;2071459;28;20038;-64
2022/05/23 05:04:16;;;;;;;3.85;1.50;;;;;;;13.22;67.96;100676.34;2063905;28;21096;-63
2022/05/23 05:05:19;;;;;;;3.55;1.70;;;;;;;13.23;68.45;100676.28;2063229;28;20495;-63
2022/05/23 05:06:26;;;;;;;5.72;1.60;;;;;;;13.38;67.95;100676.66;2071442;28;20176;-64
2022/05/23 05:07:28;;;;;;;4.00;1.75;;;;;;;13.44;68.56;100682.69;2071474;28;20046;-63
2022/05/23 05:08:33;;;;;;;5.78;1.70;;;;;;;13.43;67.56;100680.91;2065051;28;20043;-63
2022/05/23 05:09:36;;;;;;;3.42;1.80;;;;;;;13.56;67.92;100670.53;2062900;28;20047;-63
2022/05/23 05:10:41;;;;;;;4.15;1.58;;;;;;;13.60;67.13;100669.47;2063007;28;20059;-62
2022/05/23 05:11:44;;;;;;;4.47;1.70;;;;;;;13.74;67.39;100669.78;2063244;28;20043;-63
2022/05/23 05:12:56;;;;;;;3.47;1.50;;;;;;;13.82;66.28;100660.53;2063798;28;20987;-63
2022/05/23 05:13:58;;;;;;;3.50;1.65;;;;;;;14.01;65.56;100663.34;2071691;28;20039;-63
2022/05/23 05:15:00;;;;;;;6.63;1.65;;;;;;;14.06;65.13;100662.22;2070311;28;20090;-63
2022/05/23 05:16:07;;;;;;;6.20;1.67;;;;;;;14.48;64.40;100657.75;2079982;28;20139;-63
2022/05/23 05:17:11;;;;;;;4.57;1.30;;;;;;;14.91;62.96;100657.69;2078796;28;21519;-62
2022/05/23 05:18:14;;;;;;;5.75;1.50;;;;;;;14.98;61.92;100660.03;2071334;28;20049;-63
2022/05/23 05:19:24;;;;;;;4.35;1.40;;;;;;;15.15;61.33;100647.63;2071887;28;20057;-63
2022/05/23 05:20:29;;;;;;;4.63;1.70;;;;;;;15.24;61.19;100645.34;2080067;28;20968;-63
2022/05/23 05:21:33;;;;;;;3.28;1.55;;;;;;;15.24;61.72;100637.25;2087877;28;20042;-63
2022/05/23 05:22:58;;;;;;;2.85;1.30;;;;;;;14.97;61.71;100642.13;2088043;28;20085;-63
2022/05/23 05:24:19;;;;;;;4.07;1.50;;;;;;;15.02;62.43;100641.88;2087590;28;20057;-63
2022/05/23 05:25:42;;;;;;;2.90;1.30;;;;;;;15.24;61.28;100634.56;2084918;28;20056;-63
2022/05/23 05:26:50;;;;;;;3.85;1.73;;;;;;;15.33;61.52;100630.56;2072424;28;20033;-63
2022/05/23 05:27:52;;;;;;;4.82;1.55;;;;;;;15.45;60.86;100629.06;2070888;28;20042;-64